Time;durP1;ratioP1;P1;durP2;ratioP2;P2;SDS_P1;SDS_P2;PMS_P1;PMS_P2;Temp;Humidity;BMP_temperature;BMP_pressure;BME280_temperature;BME280_humidity;BME280_pressure;Samples;Min_cycle;Max_cycle;Signal;HPM_P1;HPM_P2
2022/01/10 00:00:31;;;;;;;13.90;3.90;;;4.10;99.90;;;;;;5014432;28;20175;-76
2022/01/10 00:02:58;;;;;;;16.17;3.40;;;4.20;99.90;;;;;;5010314;28;20215;-77
2022/01/10 00:05:24;;;;;;;12.47;3.77;;;4.10;99.90;;;;;;5027276;28;20279;-77
2022/01/10 00:07:53;;;;;;;12.40;3.67;;;4.10;99.90;;;;;;5030098;28;20236;-77
2022/01/10 00:10:19;;;;;;;14.87;3.63;;;4.00;99.90;;;;;;5014889;28;20183;-77
2022/01/10 00:12:48;;;;;;;10.47;3.47;;;4.10;99.90;;;;;;5031393;28;20221;-77
2022/01/10 00:15:16;;;;;;;13.23;4.03;;;4.10;99.90;;;;;;5029832;28;20199;-77
2022/01/10 00:17:43;;;;;;;14.07;3.67;;;4.10;99.90;;;;;;5016629;28;20182;-77
2022/01/10 00:20:11;;;;;;;17.07;3.80;;;4.10;99.90;;;;;;5007447;28;20176;-78
2022/01/10 00:22:39;;;;;;;10.57;3.30;;;4.10;99.90;;;;;;5015281;28;20171;-77
2022/01/10 00:25:05;;;;;;;12.30;3.67;;;4.00;99.90;;;;;;5014005;28;20182;-77
2022/01/10 00:27:31;;;;;;;12.93;3.37;;;4.00;99.90;;;;;;4997745;28;20193;-78
2022/01/10 00:29:57;;;;;;;12.87;3.90;;;3.90;99.90;;;;;;5012494;28;20495;-78
2022/01/10 00:32:23;;;;;;;10.93;3.27;;;4.00;99.90;;;;;;4999962;28;20182;-78
2022/01/10 00:34:50;;;;;;;8.70;3.30;;;3.90;99.90;;;;;;5013960;28;20578;-79
2022/01/10 00:37:23;;;;;;;10.53;3.70;;;3.90;99.90;;;;;;5013631;28;20172;-78
2022/01/10 00:39:49;;;;;;;14.03;3.50;;;4.00;99.90;;;;;;5012169;28;20631;-78
2022/01/10 00:42:18;;;;;;;16.07;3.63;;;4.00;99.90;;;;;;5012198;28;20186;-78
2022/01/10 00:44:57;;;;;;;15.50;3.67;;;4.00;99.90;;;;;;5012795;28;20198;-79
2022/01/10 00:47:23;;;;;;;13.87;3.83;;;4.00;99.90;;;;;;5012622;28;20191;-78
2022/01/10 00:49:50;;;;;;;13.27;3.50;;;4.00;99.90;;;;;;5011927;28;20175;-78
2022/01/10 00:52:15;;;;;;;12.57;3.97;;;4.00;99.90;;;;;;5012160;28;20186;-78
2022/01/10 00:54:41;;;;;;;12.10;3.70;;;4.00;99.90;;;;;;5011432;28;20206;-78
2022/01/10 00:57:18;;;;;;;12.33;3.50;;;4.00;99.90;;;;;;5010448;28;20175;-78
2022/01/10 00:59:43;;;;;;;9.70;3.27;;;4.00;99.90;;;;;;4997627;28;20173;-78
2022/01/10 01:02:09;;;;;;;12.87;3.97;;;4.00;99.90;;;;;;4995655;28;20251;-78
2022/01/10 01:04:35;;;;;;;10.83;4.07;;;4.00;99.90;;;;;;5010004;28;20219;-78
2022/01/10 01:07:13;;;;;;;14.80;4.03;;;3.90;99.90;;;;;;4994870;28;20601;-78
2022/01/10 01:09:42;;;;;;;15.67;4.00;;;3.90;99.90;;;;;;4994874;28;21503;-78
2022/01/10 01:12:17;;;;;;;14.93;4.73;;;3.90;99.90;;;;;;4997957;28;20187;-77
2022/01/10 01:17:26;;;;;;;12.03;4.07;;;3.90;99.90;;;;;;5028495;28;20263;-77
2022/01/10 01:25:11;;;;;;;15.80;4.57;;;3.90;99.90;;;;;;4996434;28;20179;-77
2022/01/10 01:27:39;;;;;;;9.57;4.10;;;3.80;99.90;;;;;;5012759;28;20175;-78
2022/01/10 01:30:06;;;;;;;19.67;4.70;;;3.90;99.90;;;;;;5013261;28;20178;-78
2022/01/10 01:32:32;;;;;;;13.53;5.13;;;3.90;99.90;;;;;;4997832;28;20696;-78
2022/01/10 01:35:04;;;;;;;19.90;5.40;;;3.90;99.90;;;;;;4988472;28;20211;-78
2022/01/10 01:37:30;;;;;;;13.40;4.67;;;3.90;99.90;;;;;;5005378;28;20229;-78
2022/01/10 01:40:03;;;;;;;14.77;4.60;;;3.90;99.90;;;;;;4992644;28;20575;-78
2022/01/10 01:42:34;;;;;;;13.27;4.50;;;3.90;99.90;;;;;;5010565;28;20206;-78
2022/01/10 01:45:01;;;;;;;19.27;5.50;;;3.90;99.90;;;;;;4994536;28;20191;-78
2022/01/10 01:47:26;;;;;;;13.17;5.03;;;3.90;99.90;;;;;;4995028;28;20175;-78
2022/01/10 01:49:53;;;;;;;14.70;5.33;;;3.90;99.90;;;;;;4996644;28;20273;-78
2022/01/10 01:52:20;;;;;;;14.87;5.07;;;3.90;99.90;;;;;;4994972;28;20183;-79
2022/01/10 01:54:45;;;;;;;20.17;5.90;;;4.00;99.90;;;;;;5010841;28;20198;-78
2022/01/10 01:57:11;;;;;;;16.53;6.00;;;3.90;99.90;;;;;;4991626;28;20769;-77
2022/01/10 01:59:38;;;;;;;14.90;6.33;;;3.90;99.90;;;;;;5012829;28;20181;-77
2022/01/10 02:02:04;;;;;;;13.30;5.20;;;4.00;99.90;;;;;;5004720;28;20203;-77
2022/01/10 02:04:30;;;;;;;12.53;5.63;;;4.00;99.90;;;;;;5013098;28;20230;-77
2022/01/10 02:06:57;;;;;;;11.10;5.60;;;4.10;99.90;;;;;;5011435;28;20551;-77
2022/01/10 02:09:23;;;;;;;16.07;5.93;;;4.00;99.90;;;;;;5013286;28;20185;-77
2022/01/10 02:11:52;;;;;;;15.93;6.20;;;4.00;99.90;;;;;;4997829;28;20187;-78
2022/01/10 02:14:19;;;;;;;12.60;5.77;;;4.10;99.90;;;;;;4995290;28;20286;-78
2022/01/10 02:16:53;;;;;;;15.50;6.97;;;4.20;99.90;;;;;;5011826;28;20305;-77
2022/01/10 02:19:56;;;;;;;15.20;6.37;;;4.10;99.90;;;;;;5008733;28;20178;-77
2022/01/10 02:22:22;;;;;;;14.67;6.83;;;4.20;99.90;;;;;;4995012;28;20516;-77
2022/01/10 02:25:03;;;;;;;15.60;6.50;;;4.20;99.90;;;;;;5012859;28;20646;-77
2022/01/10 02:27:29;;;;;;;15.07;6.47;;;4.30;99.90;;;;;;5014399;28;20175;-77
2022/01/10 02:29:56;;;;;;;18.20;6.37;;;4.30;99.90;;;;;;5012810;28;20204;-77
2022/01/10 02:32:22;;;;;;;10.93;6.03;;;4.30;99.90;;;;;;5010587;28;20176;-77
2022/01/10 02:34:47;;;;;;;20.77;6.83;;;4.30;99.90;;;;;;5010349;28;20238;-77
2022/01/10 02:37:35;;;;;;;20.50;7.20;;;4.30;99.90;;;;;;5013446;28;20824;-76
2022/01/10 02:40:06;;;;;;;14.73;6.70;;;4.30;99.90;;;;;;5010988;28;20175;-76
2022/01/10 02:42:34;;;;;;;17.47;7.30;;;4.20;99.90;;;;;;5010449;28;20555;-77
2022/01/10 02:45:00;;;;;;;14.50;7.47;;;4.30;99.90;;;;;;5009850;28;20182;-78
2022/01/10 02:47:29;;;;;;;13.27;7.07;;;4.20;99.90;;;;;;5009033;28;20175;-77
2022/01/10 02:49:54;;;;;;;14.73;7.20;;;4.20;99.90;;;;;;5013821;28;20175;-77
2022/01/10 02:52:20;;;;;;;12.63;7.23;;;4.20;99.90;;;;;;4994497;28;20188;-77
2022/01/10 02:54:47;;;;;;;17.63;7.03;;;4.20;99.90;;;;;;4993224;28;20254;-77
2022/01/10 02:57:17;;;;;;;20.67;7.33;;;4.20;99.90;;;;;;5010678;28;20273;-77
2022/01/10 02:59:43;;;;;;;15.40;7.20;;;4.30;99.90;;;;;;5010617;28;20617;-77
2022/01/10 03:02:11;;;;;;;13.03;6.93;;;4.20;99.90;;;;;;5012981;28;20199;-77
2022/01/10 03:05:31;;;;;;;17.93;7.60;;;4.20;99.90;;;;;;4995556;28;20300;-77
2022/01/10 03:07:58;;;;;;;16.20;7.00;;;4.20;99.90;;;;;;4994404;28;20184;-77
2022/01/10 03:10:36;;;;;;;15.87;7.37;;;4.20;99.90;;;;;;5011805;28;20190;-77
2022/01/10 03:13:02;;;;;;;15.07;6.63;;;4.20;99.90;;;;;;4988920;28;20212;-77
2022/01/10 03:15:33;;;;;;;21.23;7.30;;;4.20;99.90;;;;;;5007213;28;20215;-78
2022/01/10 03:17:59;;;;;;;20.50;7.37;;;4.20;99.90;;;;;;4993275;28;20267;-77
2022/01/10 03:20:25;;;;;;;15.17;6.60;;;4.30;99.90;;;;;;5009806;28;20639;-77
2022/01/10 03:22:55;;;;;;;14.50;7.60;;;4.30;99.90;;;;;;4996394;28;20201;-77
2022/01/10 03:25:22;;;;;;;15.50;6.40;;;4.30;99.90;;;;;;5012242;28;20203;-77
2022/01/10 03:27:49;;;;;;;17.80;6.60;;;4.20;99.90;;;;;;4996199;28;20185;-77
2022/01/10 03:30:16;;;;;;;21.47;6.83;;;4.30;99.90;;;;;;4996121;28;20171;-77
2022/01/10 03:32:42;;;;;;;19.37;7.10;;;4.30;99.90;;;;;;5009522;28;20184;-77
2022/01/10 03:35:19;;;;;;;18.10;6.97;;;4.30;99.90;;;;;;5002239;28;20195;-77
2022/01/10 03:37:45;;;;;;;16.00;7.03;;;4.40;99.90;;;;;;5011758;28;20197;-77
2022/01/10 03:40:11;;;;;;;18.70;6.20;;;4.40;99.90;;;;;;4992404;28;20317;-77
2022/01/10 03:42:37;;;;;;;14.50;6.17;;;4.30;99.90;;;;;;5012522;28;20242;-77
2022/01/10 03:45:06;;;;;;;13.03;6.00;;;4.30;99.90;;;;;;4993234;28;20242;-77
2022/01/10 03:47:35;;;;;;;13.63;6.10;;;4.40;99.90;;;;;;5008380;28;20211;-77
2022/01/10 03:50:00;;;;;;;15.67;6.97;;;4.30;99.90;;;;;;5010147;28;20183;-77
2022/01/10 03:52:27;;;;;;;17.77;7.20;;;4.30;99.90;;;;;;5008558;28;20179;-77
2022/01/10 03:54:54;;;;;;;17.27;6.63;;;4.30;99.90;;;;;;5012032;28;20210;-77
2022/01/10 03:57:19;;;;;;;21.97;6.80;;;4.20;99.90;;;;;;4995741;28;20198;-77
2022/01/10 03:59:46;;;;;;;15.60;7.23;;;4.10;99.90;;;;;;5009177;28;20181;-77
2022/01/10 04:02:12;;;;;;;18.73;7.80;;;4.10;99.90;;;;;;4996444;28;20171;-77
2022/01/10 04:04:39;;;;;;;22.03;7.37;;;4.00;99.90;;;;;;5010516;28;20570;-77
2022/01/10 04:07:05;;;;;;;17.40;7.70;;;4.10;99.90;;;;;;4994000;28;20184;-78
2022/01/10 04:09:37;;;;;;;20.90;7.20;;;4.20;99.90;;;;;;5010437;28;20643;-78
2022/01/10 04:12:03;;;;;;;14.03;7.17;;;4.20;99.90;;;;;;4995676;28;20185;-77
2022/01/10 04:14:29;;;;;;;21.77;7.80;;;4.20;99.90;;;;;;4992668;28;20190;-78
2022/01/10 04:16:55;;;;;;;19.23;7.70;;;4.20;99.90;;;;;;4995127;28;20179;-78
2022/01/10 04:19:20;;;;;;;19.20;8.17;;;4.20;99.90;;;;;;4989979;28;20225;-78
2022/01/10 04:21:46;;;;;;;22.33;8.30;;;4.20;99.90;;;;;;4991278;28;20539;-78
2022/01/10 04:24:12;;;;;;;21.87;10.13;;;4.30;99.90;;;;;;5010734;28;20289;-78
2022/01/10 04:26:37;;;;;;;18.13;9.63;;;4.40;99.90;;;;;;5011514;28;20189;-78
2022/01/10 04:29:14;;;;;;;23.37;9.97;;;4.40;99.90;;;;;;4995435;28;20175;-78
2022/01/10 04:31:39;;;;;;;27.13;10.10;;;4.40;99.90;;;;;;4995870;28;20170;-78
2022/01/10 04:34:05;;;;;;;21.00;9.90;;;4.40;99.90;;;;;;5008717;28;20203;-77
2022/01/10 04:36:31;;;;;;;23.30;10.50;;;4.50;99.90;;;;;;5010098;28;20288;-77
2022/01/10 04:38:57;;;;;;;25.10;11.43;;;4.60;99.90;;;;;;5011939;28;20232;-77
2022/01/10 04:41:24;;;;;;;22.93;10.43;;;4.60;99.90;;;;;;5009221;28;20188;-78
2022/01/10 04:43:50;;;;;;;20.00;9.90;;;4.50;99.90;;;;;;5008712;28;20191;-78
2022/01/10 04:46:16;;;;;;;19.07;9.80;;;4.50;99.90;;;;;;5008307;28;20263;-78
2022/01/10 04:48:41;;;;;;;20.77;9.97;;;4.50;99.90;;;;;;5011862;28;20206;-78
2022/01/10 04:51:17;;;;;;;16.87;8.77;;;4.50;99.90;;;;;;5010923;28;20520;-78
2022/01/10 04:53:50;;;;;;;20.77;10.10;;;4.60;99.90;;;;;;5009974;28;20675;-78
2022/01/10 04:56:44;;;;;;;28.77;10.40;;;4.60;99.90;;;;;;5009625;28;20204;-77
2022/01/10 04:59:10;;;;;;;23.27;9.97;;;4.60;99.90;;;;;;5009013;28;20179;-77
2022/01/10 05:01:37;;;;;;;28.13;9.57;;;4.60;99.90;;;;;;5011998;28;20181;-78
2022/01/10 05:04:03;;;;;;;22.90;10.43;;;4.50;99.90;;;;;;5008114;28;20587;-78
2022/01/10 05:06:36;;;;;;;23.83;9.63;;;4.50;99.90;;;;;;5011078;28;20651;-78
2022/01/10 05:09:03;;;;;;;21.60;9.17;;;4.50;99.90;;;;;;5011547;28;20185;-77
2022/01/10 05:11:48;;;;;;;15.70;7.30;;;4.50;99.90;;;;;;5011341;28;20180;-78
2022/01/10 05:14:13;;;;;;;10.27;5.50;;;4.40;99.90;;;;;;5006024;28;20681;-77
2022/01/10 05:16:40;;;;;;;10.00;5.00;;;4.30;99.90;;;;;;5010220;28;20203;-77
2022/01/10 05:19:24;;;;;;;7.40;5.07;;;4.30;99.90;;;;;;4995270;28;20186;-77
2022/01/10 05:21:50;;;;;;;7.97;4.90;;;4.30;99.90;;;;;;4988517;28;20206;-77
2022/01/10 05:24:15;;;;;;;5.53;4.50;;;4.20;99.90;;;;;;5010494;28;20248;-78
2022/01/10 05:26:42;;;;;;;5.83;4.93;;;4.20;99.90;;;;;;4995063;28;20167;-78
2022/01/10 05:29:36;;;;;;;7.97;4.80;;;4.20;99.90;;;;;;5008369;28;20210;-78
2022/01/10 05:32:02;;;;;;;6.67;4.30;;;4.20;99.90;;;;;;5008289;28;20171;-78
2022/01/10 05:34:38;;;;;;;7.30;4.93;;;4.20;99.90;;;;;;5008597;28;20298;-78
2022/01/10 05:37:05;;;;;;;5.27;4.77;;;4.30;99.90;;;;;;5001931;28;20187;-78
2022/01/10 05:39:33;;;;;;;6.27;4.77;;;4.30;99.90;;;;;;5014969;28;20195;-78
2022/01/10 05:41:59;;;;;;;8.10;5.30;;;4.30;99.90;;;;;;5012028;28;20172;-77
2022/01/10 05:44:26;;;;;;;7.60;5.77;;;4.30;99.90;;;;;;5012456;28;20198;-78
2022/01/10 05:46:52;;;;;;;6.33;5.50;;;4.30;99.90;;;;;;5011800;28;20206;-78
2022/01/10 05:49:25;;;;;;;7.83;5.90;;;4.20;99.90;;;;;;4991045;28;20172;-77
2022/01/10 05:51:52;;;;;;;6.80;5.93;;;4.20;99.90;;;;;;4995728;28;20174;-78
2022/01/10 05:54:33;;;;;;;8.23;6.20;;;4.20;99.90;;;;;;5010805;28;20651;-77
2022/01/10 05:57:01;;;;;;;7.27;5.87;;;4.20;99.90;;;;;;4998101;28;20240;-78
2022/01/10 05:59:28;;;;;;;6.37;5.00;;;4.10;99.90;;;;;;4995312;28;20182;-78
2022/01/10 06:01:54;;;;;;;6.43;5.20;;;4.10;99.90;;;;;;5015302;28;20228;-77
2022/01/10 06:04:22;;;;;;;6.87;5.93;;;4.10;99.90;;;;;;4997447;28;20202;-77
2022/01/10 06:06:49;;;;;;;8.27;5.70;;;4.10;99.90;;;;;;5019662;28;20172;-77
2022/01/10 06:09:15;;;;;;;7.10;6.03;;;4.10;99.90;;;;;;5007552;28;20222;-77
2022/01/10 06:11:43;;;;;;;6.63;6.00;;;4.10;99.90;;;;;;5002952;28;20168;-77
2022/01/10 06:14:12;;;;;;;7.43;6.30;;;4.10;99.90;;;;;;5014533;28;20522;-78
2022/01/10 06:16:38;;;;;;;7.27;6.20;;;4.10;99.90;;;;;;4998005;28;20206;-78
2022/01/10 06:19:04;;;;;;;7.37;6.67;;;4.20;99.90;;;;;;4998564;28;20177;-78
2022/01/10 06:21:30;;;;;;;6.90;6.23;;;4.10;99.90;;;;;;5012909;28;20162;-78
2022/01/10 06:23:58;;;;;;;8.00;6.87;;;4.10;99.90;;;;;;4998069;28;20210;-77
2022/01/10 06:26:23;;;;;;;7.93;7.10;;;4.10;99.90;;;;;;4997208;28;20179;-77
2022/01/10 06:28:49;;;;;;;8.77;7.50;;;4.30;99.90;;;;;;5012682;28;20320;-77
2022/01/10 06:31:15;;;;;;;8.23;7.27;;;4.30;99.90;;;;;;4994914;28;20257;-78
2022/01/10 06:34:07;;;;;;;8.20;7.40;;;4.30;99.90;;;;;;5005663;28;20282;-78
2022/01/10 06:36:33;;;;;;;9.07;7.87;;;4.30;99.90;;;;;;4996183;28;20626;-78
2022/01/10 06:38:59;;;;;;;8.97;7.80;;;4.20;99.90;;;;;;5015729;28;20171;-78
2022/01/10 06:41:25;;;;;;;8.53;7.63;;;4.20;99.90;;;;;;5013918;28;20508;-77
2022/01/10 06:43:51;;;;;;;8.60;7.50;;;4.30;99.90;;;;;;5012507;28;20201;-77
2022/01/10 06:46:19;;;;;;;9.37;8.17;;;4.30;99.90;;;;;;4996106;28;20250;-77
2022/01/10 06:48:44;;;;;;;8.73;7.83;;;4.40;99.90;;;;;;4997411;28;20192;-77
2022/01/10 06:51:11;;;;;;;9.97;8.87;;;4.30;99.90;;;;;;4994389;28;20274;-77
2022/01/10 06:53:39;;;;;;;9.10;8.20;;;4.30;99.90;;;;;;5011756;28;20207;-76
2022/01/10 06:56:05;;;;;;;9.83;8.83;;;4.30;99.90;;;;;;4996486;28;20210;-77
2022/01/10 06:58:33;;;;;;;10.20;9.10;;;4.30;99.90;;;;;;4995587;28;20262;-77
2022/01/10 07:01:00;;;;;;;10.33;9.20;;;4.30;99.90;;;;;;5012976;28;20206;-77
2022/01/10 07:03:26;;;;;;;9.80;8.80;;;4.30;99.90;;;;;;5010169;28;20225;-77
2022/01/10 07:06:02;;;;;;;10.63;9.53;;;4.30;99.90;;;;;;5008605;28;20182;-77
2022/01/10 07:08:30;;;;;;;10.60;9.37;;;4.30;99.90;;;;;;5012315;28;20189;-78
2022/01/10 07:10:59;;;;;;;10.97;9.77;;;4.20;99.90;;;;;;4993348;28;20183;-78
2022/01/10 07:13:27;;;;;;;11.70;10.07;;;4.10;99.90;;;;;;5009209;28;20223;-78
2022/01/10 07:15:57;;;;;;;10.93;9.33;;;4.10;99.90;;;;;;5011455;28;20609;-77
2022/01/10 07:18:23;;;;;;;11.43;9.50;;;4.10;99.90;;;;;;5010429;28;20699;-77
2022/01/10 07:20:52;;;;;;;12.00;10.07;;;4.20;99.90;;;;;;4995591;28;20182;-77
2022/01/10 07:23:19;;;;;;;17.63;11.37;;;4.30;99.90;;;;;;4996008;28;20256;-77
2022/01/10 07:25:45;;;;;;;11.73;10.10;;;4.20;99.90;;;;;;5010606;28;20190;-78
2022/01/10 07:28:10;;;;;;;12.93;10.40;;;4.10;99.90;;;;;;5012865;28;20182;-78
2022/01/10 07:30:49;;;;;;;13.17;11.03;;;4.00;99.90;;;;;;5011386;28;20190;-77
2022/01/10 07:33:16;;;;;;;14.13;11.37;;;4.00;99.90;;;;;;5009769;28;20203;-78
2022/01/10 07:35:41;;;;;;;15.07;12.43;;;4.00;99.90;;;;;;5008827;28;20203;-77
2022/01/10 07:38:07;;;;;;;15.00;11.87;;;4.00;99.90;;;;;;5011823;28;20171;-78
2022/01/10 07:40:33;;;;;;;17.70;12.07;;;4.00;99.90;;;;;;5012752;28;20175;-78
2022/01/10 07:42:59;;;;;;;14.10;12.17;;;3.90;99.90;;;;;;5011701;28;20504;-77
2022/01/10 07:45:47;;;;;;;16.80;12.50;;;4.00;99.90;;;;;;5011572;28;20265;-78
2022/01/10 07:48:13;;;;;;;16.27;11.90;;;4.00;99.90;;;;;;5009073;28;20331;-77
2022/01/10 07:50:39;;;;;;;15.60;12.23;;;4.10;99.90;;;;;;5012617;28;20256;-78
2022/01/10 07:53:04;;;;;;;16.33;13.00;;;4.10;99.90;;;;;;5004996;28;20708;-78
2022/01/10 07:55:36;;;;;;;17.53;13.40;;;4.10;99.90;;;;;;4987404;28;20278;-78
2022/01/10 07:58:02;;;;;;;20.17;14.13;;;4.20;99.90;;;;;;5012026;28;20651;-78
2022/01/10 08:00:28;;;;;;;18.37;13.23;;;4.10;99.90;;;;;;5012291;28;20182;-78
2022/01/10 08:02:54;;;;;;;19.07;14.53;;;4.10;99.90;;;;;;5008724;28;20207;-78
2022/01/10 08:05:20;;;;;;;19.53;14.40;;;4.10;99.90;;;;;;5010550;28;20206;-78
2022/01/10 08:07:45;;;;;;;17.57;14.50;;;4.10;99.90;;;;;;5009575;28;20181;-78
2022/01/10 08:10:16;;;;;;;20.13;14.43;;;4.00;99.90;;;;;;5009301;28;20218;-78
2022/01/10 08:12:42;;;;;;;20.83;15.10;;;4.10;99.90;;;;;;5008843;28;20187;-78
2022/01/10 08:15:08;;;;;;;17.23;13.97;;;4.20;99.90;;;;;;5008182;28;20207;-77
2022/01/10 08:17:35;;;;;;;18.83;15.13;;;4.30;99.90;;;;;;5008872;28;20175;-76
2022/01/10 08:20:01;;;;;;;20.73;15.47;;;4.20;99.90;;;;;;5003140;28;20717;-77
2022/01/10 08:22:27;;;;;;;19.83;15.37;;;4.20;99.90;;;;;;5011315;28;20217;-78
2022/01/10 08:24:53;;;;;;;19.60;15.47;;;4.20;99.90;;;;;;5009976;28;20179;-78
2022/01/10 08:27:19;;;;;;;20.87;15.50;;;4.20;99.90;;;;;;5010139;28;20256;-78
2022/01/10 08:29:50;;;;;;;19.67;15.17;;;4.20;99.90;;;;;;5012336;28;20535;-78
2022/01/10 08:32:20;;;;;;;21.57;15.50;;;4.20;99.90;;;;;;5010316;28;20230;-78
2022/01/10 08:34:47;;;;;;;21.00;15.53;;;4.30;99.90;;;;;;4996360;28;20705;-77
2022/01/10 08:37:21;;;;;;;19.77;15.30;;;4.30;99.90;;;;;;5013043;28;20178;-78
2022/01/10 08:39:53;;;;;;;21.30;15.63;;;4.30;99.90;;;;;;5011787;28;20166;-77
2022/01/10 08:42:27;;;;;;;23.67;16.00;;;4.30;99.90;;;;;;5009597;28;20171;-78
2022/01/10 08:44:54;;;;;;;20.37;15.30;;;4.40;99.90;;;;;;5011855;28;20182;-78
2022/01/10 08:47:21;;;;;;;21.47;16.30;;;4.40;99.90;;;;;;4987849;28;20639;-77
2022/01/10 08:49:48;;;;;;;20.87;15.57;;;4.30;99.90;;;;;;5012712;28;20175;-78
2022/01/10 08:52:24;;;;;;;23.13;16.77;;;4.30;99.90;;;;;;5009277;28;20171;-78
2022/01/10 08:54:51;;;;;;;20.43;15.80;;;4.30;99.90;;;;;;5004547;28;20210;-78
2022/01/10 08:57:17;;;;;;;21.77;16.47;;;4.30;99.90;;;;;;5004164;28;20175;-78
2022/01/10 08:59:54;;;;;;;23.07;17.50;;;4.30;99.90;;;;;;5010561;28;20211;-78
2022/01/10 09:02:20;;;;;;;23.17;15.67;;;4.30;99.90;;;;;;5011234;28;20181;-78
2022/01/10 09:04:46;;;;;;;20.20;15.63;;;4.40;99.90;;;;;;5010078;28;20220;-78
2022/01/10 09:07:13;;;;;;;22.43;17.37;;;4.40;99.90;;;;;;5010665;28;20214;-77
2022/01/10 09:09:42;;;;;;;22.27;16.60;;;4.50;99.90;;;;;;5009955;28;20197;-77
2022/01/10 09:12:17;;;;;;;21.47;16.00;;;4.50;99.90;;;;;;5011479;28;20182;-78
2022/01/10 09:14:45;;;;;;;21.57;16.00;;;4.60;99.90;;;;;;5009122;28;20260;-78
2022/01/10 09:17:11;;;;;;;23.83;17.20;;;4.60;99.90;;;;;;5001138;28;20644;-78
2022/01/10 09:19:39;;;;;;;25.33;18.03;;;4.70;99.90;;;;;;5010004;28;20261;-77
2022/01/10 09:22:07;;;;;;;24.83;17.67;;;4.60;99.90;;;;;;5009998;28;20318;-78
2022/01/10 09:24:46;;;;;;;24.23;17.40;;;4.60;99.90;;;;;;5010221;28;20192;-78
2022/01/10 09:27:14;;;;;;;23.33;17.13;;;4.70;99.90;;;;;;5011108;28;20170;-78
2022/01/10 09:29:40;;;;;;;26.67;18.40;;;4.80;99.90;;;;;;5008787;28;20569;-78
2022/01/10 09:32:08;;;;;;;25.93;18.20;;;4.80;99.90;;;;;;5009135;28;20179;-79
2022/01/10 09:34:33;;;;;;;28.73;18.70;;;4.70;99.90;;;;;;5008142;28;20192;-78
2022/01/10 09:36:59;;;;;;;27.40;19.00;;;4.80;99.90;;;;;;5011379;28;20173;-78
2022/01/10 09:39:27;;;;;;;30.07;19.83;;;4.80;99.90;;;;;;5011122;28;20178;-78
2022/01/10 09:42:12;;;;;;;31.13;19.57;;;4.80;99.90;;;;;;5008514;28;20171;-77
2022/01/10 09:44:43;;;;;;;28.80;18.67;;;4.80;99.90;;;;;;5010794;28;20207;-78
2022/01/10 09:47:09;;;;;;;30.17;19.07;;;4.80;99.90;;;;;;5008796;28;20182;-79
2022/01/10 09:49:42;;;;;;;29.33;18.57;;;4.70;99.90;;;;;;5003530;28;20182;-78
2022/01/10 09:52:10;;;;;;;34.40;19.70;;;4.80;99.90;;;;;;4984991;28;20279;-78
2022/01/10 09:54:44;;;;;;;30.97;19.20;;;4.80;99.90;;;;;;5007337;28;20286;-78
2022/01/10 09:57:11;;;;;;;29.87;19.47;;;4.80;99.90;;;;;;5008828;28;20169;-78
2022/01/10 09:59:39;;;;;;;31.87;19.67;;;5.00;99.90;;;;;;5009404;28;20321;-78
2022/01/10 10:02:08;;;;;;;29.07;18.93;;;5.00;99.90;;;;;;5011700;28;20171;-78
2022/01/10 10:04:37;;;;;;;29.00;18.93;;;5.00;99.90;;;;;;5010965;28;20229;-78
2022/01/10 10:07:06;;;;;;;29.47;18.90;;;5.10;99.90;;;;;;5011133;28;20178;-78
2022/01/10 10:09:32;;;;;;;34.13;20.83;;;5.10;99.90;;;;;;5011088;28;20170;-79
2022/01/10 10:11:58;;;;;;;32.67;20.10;;;5.10;99.90;;;;;;5011650;28;20409;-78
2022/01/10 10:14:27;;;;;;;31.77;19.93;;;5.10;99.90;;;;;;5009018;28;20594;-78
2022/01/10 10:16:58;;;;;;;30.73;19.27;;;5.20;99.90;;;;;;5008946;28;20181;-78
2022/01/10 10:19:27;;;;;;;32.50;19.67;;;5.20;99.90;;;;;;5011125;28;20183;-79
2022/01/10 10:21:55;;;;;;;29.43;19.27;;;5.20;99.90;;;;;;5011495;28;20636;-78
2022/01/10 10:24:23;;;;;;;32.70;20.40;;;5.30;99.90;;;;;;5011910;28;20202;-78
2022/01/10 10:26:49;;;;;;;31.40;19.67;;;5.40;99.90;;;;;;4994601;28;20213;-77
2022/01/10 10:29:17;;;;;;;27.67;18.67;;;5.50;99.90;;;;;;5015483;28;20183;-78
2022/01/10 10:31:45;;;;;;;30.33;18.67;;;5.50;99.90;;;;;;5014218;28;20538;-78
2022/01/10 10:34:12;;;;;;;29.17;17.97;;;5.60;99.90;;;;;;4995659;28;20206;-78
2022/01/10 10:36:38;;;;;;;26.67;16.83;;;5.70;99.90;;;;;;5014334;28;20209;-77
2022/01/10 10:39:07;;;;;;;29.10;17.73;;;5.70;99.90;;;;;;5009995;28;20543;-78
2022/01/10 10:41:34;;;;;;;28.57;17.60;;;5.70;99.90;;;;;;5014074;28;20183;-77
2022/01/10 10:44:01;;;;;;;30.23;18.77;;;5.80;99.90;;;;;;5014250;28;20307;-77
2022/01/10 10:46:29;;;;;;;34.10;19.43;;;5.90;99.90;;;;;;5012632;28;20173;-77
2022/01/10 10:49:05;;;;;;;35.83;19.03;;;5.90;99.90;;;;;;5013767;28;20172;-77
2022/01/10 10:51:34;;;;;;;30.63;19.23;;;5.90;99.90;;;;;;4997194;28;20264;-77
2022/01/10 10:54:09;;;;;;;32.63;19.67;;;5.80;99.90;;;;;;5011377;28;20650;-77
2022/01/10 10:56:42;;;;;;;30.43;18.83;;;5.80;99.90;;;;;;5013921;28;20328;-80
2022/01/10 10:59:08;;;;;;;34.27;19.67;;;5.70;99.90;;;;;;4997943;28;20190;-78
2022/01/10 11:01:39;;;;;;;30.97;19.27;;;5.70;99.90;;;;;;4997802;28;20185;-76
2022/01/10 11:04:09;;;;;;;32.20;19.37;;;5.60;99.90;;;;;;5030109;28;20278;-76
2022/01/10 11:06:35;;;;;;;30.27;18.60;;;5.60;99.90;;;;;;5027582;28;20283;-76
2022/01/10 11:09:12;;;;;;;32.07;20.30;;;5.70;99.90;;;;;;5019329;28;20538;-77
2022/01/10 11:11:46;;;;;;;34.83;20.57;;;5.60;99.90;;;;;;5014916;28;20216;-77
2022/01/10 11:14:14;;;;;;;34.23;19.97;;;5.50;99.90;;;;;;5006182;28;20228;-78
2022/01/10 11:16:45;;;;;;;32.27;20.23;;;5.50;99.90;;;;;;5014318;28;20872;-76
2022/01/10 11:19:16;;;;;;;31.30;19.70;;;5.50;99.90;;;;;;4996906;28;20179;-77
2022/01/10 11:21:46;;;;;;;30.97;19.97;;;5.50;99.90;;;;;;5000210;28;20188;-77
2022/01/10 11:24:42;;;;;;;30.33;20.17;;;5.50;99.90;;;;;;5013566;28;20292;-79
2022/01/10 11:27:36;;;;;;;31.83;20.07;;;5.50;99.90;;;;;;4997128;28;20176;-78
2022/01/10 11:30:31;;;;;;;32.27;19.80;;;5.50;99.90;;;;;;5005723;28;20193;-77
2022/01/10 11:33:16;;;;;;;32.37;21.33;;;5.50;99.90;;;;;;4995876;28;20201;-77
2022/01/10 11:35:51;;;;;;;32.23;20.60;;;5.50;99.90;;;;;;5011605;28;20686;-77
2022/01/10 11:38:34;;;;;;;32.10;20.47;;;5.50;99.90;;;;;;4998779;28;20267;-77
2022/01/10 11:41:15;;;;;;;30.97;19.90;;;5.50;99.90;;;;;;4996299;28;20258;-78
2022/01/10 11:43:51;;;;;;;34.80;20.87;;;5.50;99.90;;;;;;5013934;28;20535;-77
2022/01/10 11:46:23;;;;;;;30.60;20.10;;;5.40;99.90;;;;;;5013886;28;20186;-78
2022/01/10 11:49:08;;;;;;;32.70;20.30;;;5.40;99.90;;;;;;5014286;28;20650;-77
2022/01/10 11:52:00;;;;;;;31.27;19.47;;;5.50;99.90;;;;;;4997228;28;20188;-77
2022/01/10 11:54:35;;;;;;;26.37;18.00;;;5.60;99.90;;;;;;5010060;28;20207;-77
2022/01/10 11:57:32;;;;;;;30.37;19.43;;;5.70;99.90;;;;;;5012310;28;20176;-77
2022/01/10 12:00:08;;;;;;;31.40;19.37;;;5.60;99.90;;;;;;5003425;28;20606;-77
2022/01/10 12:02:37;;;;;;;28.57;18.50;;;5.70;99.90;;;;;;5012710;28;20200;-77
2022/01/10 12:05:08;;;;;;;32.30;20.63;;;5.80;99.90;;;;;;5012858;28;20186;-77
2022/01/10 12:07:33;;;;;;;29.67;19.30;;;5.80;99.90;;;;;;5013312;28;20175;-77
2022/01/10 12:09:59;;;;;;;29.77;19.80;;;5.70;99.90;;;;;;5011507;28;20222;-77
2022/01/10 12:12:27;;;;;;;32.63;19.80;;;5.60;99.90;;;;;;4996989;28;20305;-77
2022/01/10 12:14:55;;;;;;;30.50;20.47;;;5.50;99.90;;;;;;5011527;28;20235;-77
2022/01/10 12:17:21;;;;;;;28.93;18.93;;;5.60;99.90;;;;;;5010127;28;20676;-78
2022/01/10 12:19:46;;;;;;;31.43;19.50;;;5.60;99.90;;;;;;5008749;28;20186;-77
2022/01/10 12:22:12;;;;;;;29.40;19.07;;;5.60;99.90;;;;;;5013581;28;20586;-78
2022/01/10 12:24:39;;;;;;;32.53;21.07;;;5.70;99.90;;;;;;5007494;28;20296;-77
2022/01/10 12:27:07;;;;;;;32.87;20.53;;;5.60;99.90;;;;;;4981532;28;20174;-76
2022/01/10 12:29:33;;;;;;;35.63;21.70;;;5.60;99.90;;;;;;5013550;28;20176;-76
2022/01/10 12:32:00;;;;;;;34.87;22.13;;;5.60;99.90;;;;;;5005918;28;20183;-77
2022/01/10 12:34:26;;;;;;;34.57;22.33;;;5.40;99.90;;;;;;5008250;28;20210;-77
2022/01/10 12:36:52;;;;;;;38.53;23.97;;;5.30;99.90;;;;;;5008879;28;20205;-77
2022/01/10 12:39:50;;;;;;;37.03;22.97;;;5.20;99.90;;;;;;5008117;28;20183;-77
2022/01/10 12:42:17;;;;;;;38.63;24.43;;;5.20;99.90;;;;;;4991666;28;20577;-77
2022/01/10 12:44:42;;;;;;;33.83;22.47;;;5.30;99.90;;;;;;5012297;28;20266;-77
2022/01/10 12:47:15;;;;;;;33.67;22.70;;;5.40;99.90;;;;;;5010654;28;20640;-76
2022/01/10 12:49:44;;;;;;;37.57;23.07;;;5.20;99.90;;;;;;5011979;28;20175;-76
2022/01/10 12:52:14;;;;;;;35.23;23.77;;;5.20;99.90;;;;;;5011884;28;20170;-77
2022/01/10 12:54:40;;;;;;;31.03;21.80;;;5.40;99.90;;;;;;5011342;28;20629;-78
2022/01/10 12:57:07;;;;;;;32.63;21.83;;;5.40;99.90;;;;;;5008352;28;20734;-77
2022/01/10 12:59:37;;;;;;;30.90;21.17;;;5.50;99.90;;;;;;5009202;28;20175;-78
2022/01/10 13:02:27;;;;;;;32.90;22.43;;;5.50;99.90;;;;;;5010178;28;20594;-78